Estación Meteorológica Peña el Pijo (Robertgarden) [ 01/30/23 14:42:19 CET ]

Fecha Hora Presion(HPa) Temp (°C) Humedad % Rocio (°C) Viento ( m/s) Direccion Lluvia 1Hora(mm) Lluvia 24H(mm) LLuvia Total(mm)
2012-Dec-20 01:01:13 1009.700 2.4 74 -1.8         178.19
2012-Dec-20 02:01:45 1009.300 4.9 65 -1.1         178.19
2012-Dec-20 03:03:10 1010.100 8.5 68 2.9 1.5 ENE     178.19
2012-Dec-20 04:01:17 1010.000 7.4 75 3.2         178.19
2012-Dec-20 05:01:13 1010.100 6.8 77 3.0         178.19
2012-Dec-20 06:01:11 1010.100 7.2 76 3.2         178.19
2012-Dec-20 07:01:21 1010.300 7.0 76 3.0         178.19
2012-Dec-20 08:01:12 1010.000 6.7 77 2.9         178.19
2012-Dec-20 09:01:15 1010.600 7.4 79 4.0         178.19
2012-Dec-20 10:01:16 1011.400 8.9 78 5.2 1.5 SSE     178.19
2012-Dec-20 11:01:16 1011.700 10.2 76 6.1         178.19
2012-Dec-20 12:01:16 1011.500 12.1 68 6.3 0.2 S     178.19
2012-Dec-20 13:01:13 1011.000 12.6 64 5.9         178.19
2012-Dec-20 14:01:14 1010.600 12.5 66 6.3 0.3 SSW     178.19
2012-Dec-20 15:01:15 1010.500 13.3 63 6.4 2.3 ESE     178.19
2012-Dec-20 16:01:12 1010.700 12.6 65 6.2         178.19
2012-Dec-20 17:01:14 1011.300 11.5 65 5.1         178.19
2012-Dec-20 18:01:19 1011.600 10.1 68 4.5         178.19
2012-Dec-20 19:01:14 1011.900 7.9 73 3.4         178.19
2012-Dec-20 20:01:14 1012.800 7.2 77 3.4         178.19
2012-Dec-20 21:01:13 1012.900 6.2 80 3.0         178.19
2012-Dec-20 22:01:14 1012.900 6.2 81 3.2         178.19
2012-Dec-20 23:01:13 1013.100 7.2 77 3.4         178.19

Temperatura Máxima:13°    Temperatura Mínima:
Presión Máxima:1013.100 Hpa    Presión Mínima:1009.300 Hpa


Volver